Time;durP1;ratioP1;P1;durP2;ratioP2;P2;SDS_P1;SDS_P2;PMS_P1;PMS_P2;Temp;Humidity;BMP_temperature;BMP_pressure;BME280_temperature;BME280_humidity;BME280_pressure;Samples;Min_cycle;Max_cycle;Signal;HPM_P1;HPM_P2
2023/09/02 00:02:07;;;;;;;;;;;;;;;15.31;100.00;96663.94;5127077;28;19937;-82
2023/09/02 00:04:33;;;;;;;;;;;;;;;15.29;100.00;96668.66;5127615;28;19935;-84
2023/09/02 00:06:58;;;;;;;;;;;;;;;15.26;100.00;96669.94;5126484;28;19947;-82
2023/09/02 00:09:25;;;;;;;;;;;;;;;15.22;100.00;96667.00;5125669;28;20000;-83
2023/09/02 00:11:50;;;;;;;;;;;;;;;15.19;100.00;96666.66;5125753;28;19940;-83
2023/09/02 00:14:16;;;;;;;;;;;;;;;15.18;100.00;96665.88;5109457;28;19946;-83
2023/09/02 00:16:42;;;;;;;;;;;;;;;15.16;100.00;96667.94;5125541;28;19946;-82
2023/09/02 00:19:08;;;;;;;;;;;;;;;15.14;100.00;96669.22;5126361;28;20036;-82
2023/09/02 00:21:34;;;;;;;;;;;;;;;15.13;100.00;96667.63;5126730;28;20129;-82
2023/09/02 00:24:01;;;;;;;;;;;;;;;15.12;100.00;96673.94;5126444;28;19932;-82
2023/09/02 00:26:26;;;;;;;;;;;;;;;15.11;100.00;96672.34;5126827;28;19948;-82
2023/09/02 00:28:52;;;;;;;;;;;;;;;15.08;100.00;96672.84;5126546;28;19952;-82
2023/09/02 00:31:18;;;;;;;;;;;;;;;15.06;100.00;96667.78;5125322;28;19952;-72
2023/09/02 00:33:44;;;;;;;;;;;;;;;15.02;100.00;96670.09;5126023;28;19942;-72
2023/09/02 00:36:10;;;;;;;;;;;;;;;15.02;100.00;96671.94;5126484;28;19935;-77
2023/09/02 00:38:36;;;;;;;;;;;;;;;14.99;100.00;96669.78;5126381;28;19938;-78
2023/09/02 00:41:06;;;;;;;;;;;;;;;14.99;100.00;96669.78;5126408;28;19964;-78
2023/09/02 00:43:31;;;;;;;;;;;;;;;14.97;100.00;96669.22;5126599;28;19947;-77
2023/09/02 00:45:58;;;;;;;;;;;;;;;14.93;100.00;96670.72;5126863;28;19944;-78
2023/09/02 00:48:24;;;;;;;;;;;;;;;14.90;100.00;96660.66;5126135;28;19963;-77
2023/09/02 00:50:49;;;;;;;;;;;;;;;14.88;100.00;96665.38;5126982;28;19938;-82
2023/09/02 00:53:16;;;;;;;;;;;;;;;14.86;100.00;96662.97;5125382;28;19949;-83
2023/09/02 00:55:42;;;;;;;;;;;;;;;14.84;100.00;96665.06;5126651;28;19951;-82
2023/09/02 00:58:08;;;;;;;;;;;;;;;14.84;100.00;96658.97;5126535;28;19937;-83
2023/09/02 01:00:34;;;;;;;;;;;;;;;14.84;100.00;96662.41;5124786;28;20290;-83
2023/09/02 01:03:00;;;;;;;;;;;;;;;14.84;100.00;96665.06;5125921;28;19937;-82
2023/09/02 01:05:26;;;;;;;;;;;;;;;14.83;100.00;96663.47;5126386;28;19947;-82
2023/09/02 01:07:52;;;;;;;;;;;;;;;14.80;100.00;96669.22;5124610;28;20005;-84
2023/09/02 01:10:18;;;;;;;;;;;;;;;14.78;100.00;96669.47;5125760;28;20138;-71
2023/09/02 01:12:44;;;;;;;;;;;;;;;14.78;100.00;96664.19;5125226;28;19936;-79
2023/09/02 01:15:10;;;;;;;;;;;;;;;14.77;100.00;96669.69;5125696;28;19942;-79
2023/09/02 01:17:36;;;;;;;;;;;;;;;14.74;100.00;96660.44;5126174;28;19970;-80
2023/09/02 01:20:03;;;;;;;;;;;;;;;14.74;100.00;96670.16;5124668;28;19986;-80
2023/09/02 01:22:48;;;;;;;;;;;;;;;14.72;100.00;96670.41;5125546;28;19935;-79
2023/09/02 01:25:19;;;;;;;;;;;;;;;14.68;100.00;96674.56;5125496;28;19945;-79
2023/09/02 01:27:51;;;;;;;;;;;;;;;14.68;100.00;96673.75;5124552;28;19936;-72
2023/09/02 01:30:19;;;;;;;;;;;;;;;14.66;100.00;96681.09;5124300;28;20135;-80
2023/09/02 01:32:47;;;;;;;;;;;;;;;14.64;100.00;96684.00;5125359;28;19942;-79
2023/09/02 01:35:16;;;;;;;;;;;;;;;14.63;100.00;96686.88;5125295;28;19937;-78
2023/09/02 01:37:43;;;;;;;;;;;;;;;14.61;100.00;96687.09;5125337;28;19935;-79
2023/09/02 01:40:11;;;;;;;;;;;;;;;14.58;100.00;96687.59;5125074;28;20259;-79
2023/09/02 01:42:38;;;;;;;;;;;;;;;14.55;100.00;96682.75;5126086;28;19946;-79
2023/09/02 01:45:04;;;;;;;;;;;;;;;14.55;100.00;96690.66;5125129;28;19936;-71
2023/09/02 01:47:30;;;;;;;;;;;;;;;14.54;100.00;96697.00;5124829;28;20120;-80
2023/09/02 01:49:57;;;;;;;;;;;;;;;14.51;100.00;96694.81;5124605;28;19965;-73
2023/09/02 01:52:24;;;;;;;;;;;;;;;14.49;100.00;96694.25;5124991;28;19941;-72
2023/09/02 01:54:50;;;;;;;;;;;;;;;14.47;100.00;96699.78;5125497;28;19942;-73
2023/09/02 01:57:16;;;;;;;;;;;;;;;14.44;100.00;96707.34;5125779;28;19941;-73
2023/09/02 01:59:42;;;;;;;;;;;;;;;14.41;100.00;96703.34;5125475;28;19945;-73
2023/09/02 02:02:08;;;;;;;;;;;;;;;14.40;100.00;96701.75;5125419;28;19943;-72
2023/09/02 02:04:35;;;;;;;;;;;;;;;14.39;100.00;96702.78;5123788;28;19963;-71
2023/09/02 02:07:10;;;;;;;;;;;;;;;14.36;100.00;96701.44;5125261;28;19936;-71
2023/09/02 02:09:40;;;;;;;;;;;;;;;14.35;100.00;96709.56;5123597;28;19956;-71
2023/09/02 02:12:06;;;;;;;;;;;;;;;14.33;100.00;96707.16;5125294;28;19935;-71
2023/09/02 02:14:32;;;;;;;;;;;;;;;14.31;100.00;96700.53;5125342;28;20097;-71
2023/09/02 02:16:58;;;;;;;;;;;;;;;14.31;100.00;96709.22;5124769;28;19945;-71
2023/09/02 02:19:24;;;;;;;;;;;;;;;14.30;100.00;96706.81;5124694;28;19973;-71
2023/09/02 02:21:50;;;;;;;;;;;;;;;14.26;100.00;96700.41;5125236;28;20166;-71
2023/09/02 02:24:16;;;;;;;;;;;;;;;14.25;100.00;96706.75;5123460;28;20133;-78
2023/09/02 02:26:42;;;;;;;;;;;;;;;14.21;100.00;96712.50;5124653;28;19948;-72
2023/09/02 02:29:08;;;;;;;;;;;;;;;14.18;100.00;96712.16;5123265;28;19969;-72
2023/09/02 02:31:36;;;;;;;;;;;;;;;14.17;100.00;96715.81;5124564;28;19951;-71
2023/09/02 02:34:02;;;;;;;;;;;;;;;14.15;100.00;96710.78;5125060;28;19933;-72
2023/09/02 02:36:28;;;;;;;;;;;;;;;14.13;100.00;96712.84;5124601;28;20215;-72
2023/09/02 02:38:54;;;;;;;;;;;;;;;14.11;100.00;96708.84;5123908;28;19937;-71
2023/09/02 02:41:20;;;;;;;;;;;;;;;14.09;100.00;96708.25;5124408;28;19968;-72
2023/09/02 02:43:46;;;;;;;;;;;;;;;14.07;100.00;96710.34;5124501;28;19941;-71
2023/09/02 02:46:11;;;;;;;;;;;;;;;14.05;100.00;96713.22;5124454;28;20130;-71
2023/09/02 02:48:37;;;;;;;;;;;;;;;14.04;100.00;96710.81;5125842;28;19953;-71
2023/09/02 02:51:03;;;;;;;;;;;;;;;14.00;100.00;96708.63;5128510;28;19937;-71
2023/09/02 02:53:29;;;;;;;;;;;;;;;14.00;100.00;96705.19;5129274;28;19940;-71
2023/09/02 02:55:55;;;;;;;;;;;;;;;13.99;100.00;96704.41;5128414;28;20029;-71
2023/09/02 02:58:21;;;;;;;;;;;;;;;13.97;100.00;96708.31;5129179;28;19936;-71
2023/09/02 03:00:48;;;;;;;;;;;;;;;13.96;100.00;96706.69;5128329;28;19952;-81
2023/09/02 03:03:14;;;;;;;;;;;;;;;13.94;100.00;96706.94;5127974;28;19966;-72
2023/09/02 03:05:40;;;;;;;;;;;;;;;13.92;100.00;96711.66;5128242;28;20239;-72
2023/09/02 03:08:06;;;;;;;;;;;;;;;13.90;100.00;96708.44;5128052;28;19963;-72
2023/09/02 03:10:35;;;;;;;;;;;;;;;13.89;100.00;96700.75;5128142;28;20223;-72
2023/09/02 03:13:01;;;;;;;;;;;;;;;13.88;100.00;96707.03;5128581;28;19937;-72
2023/09/02 03:15:27;;;;;;;;;;;;;;;13.85;100.00;96713.59;5128281;28;19948;-72
2023/09/02 03:17:53;;;;;;;;;;;;;;;13.83;100.00;96714.88;5128060;28;20003;-83
2023/09/02 03:20:20;;;;;;;;;;;;;;;13.82;100.00;96719.34;5128501;28;19947;-71
2023/09/02 03:22:46;;;;;;;;;;;;;;;13.82;100.00;96719.34;5127921;28;19937;-71
2023/09/02 03:25:12;;;;;;;;;;;;;;;13.81;100.00;96718.50;5127857;28;20100;-71
2023/09/02 03:27:38;;;;;;;;;;;;;;;13.79;100.00;96712.66;5128065;28;20008;-71
2023/09/02 03:30:04;;;;;;;;;;;;;;;13.78;100.00;96719.00;5126525;28;19961;-71
2023/09/02 03:32:31;;;;;;;;;;;;;;;13.77;100.00;96712.13;5127905;28;20098;-71
2023/09/02 03:34:56;;;;;;;;;;;;;;;13.77;100.00;96714.75;5128152;28;19931;-71
2023/09/02 03:37:23;;;;;;;;;;;;;;;13.75;100.00;96714.19;5127664;28;19948;-73
2023/09/02 03:39:49;;;;;;;;;;;;;;;13.72;100.00;96712.00;5127950;28;19956;-77
2023/09/02 03:42:14;;;;;;;;;;;;;;;13.71;100.00;96720.13;5128081;28;19942;-78
2023/09/02 03:44:40;;;;;;;;;;;;;;;13.68;100.00;96717.97;5127485;28;20224;-77
2023/09/02 03:47:06;;;;;;;;;;;;;;;13.66;100.00;96720.84;5127411;28;19948;-77
2023/09/02 03:49:32;;;;;;;;;;;;;;;13.63;100.00;96717.84;5127847;28;19951;-78
2023/09/02 03:51:58;;;;;;;;;;;;;;;13.60;100.00;96722.53;5128149;28;19938;-77
2023/09/02 03:54:24;;;;;;;;;;;;;;;13.59;100.00;96730.69;5127325;28;19934;-71
2023/09/02 03:56:49;;;;;;;;;;;;;;;13.56;100.00;96723.25;5128044;28;19964;-72
2023/09/02 03:59:15;;;;;;;;;;;;;;;13.55;100.00;96727.72;5127068;28;19942;-77
2023/09/02 04:01:41;;;;;;;;;;;;;;;13.57;100.00;96727.50;5125356;28;19988;-76
2023/09/02 04:04:07;;;;;;;;;;;;;;;13.53;100.00;96721.88;5127118;28;20002;-77
2023/09/02 04:06:33;;;;;;;;;;;;;;;13.54;100.00;96725.31;5127098;28;19956;-77
2023/09/02 04:08:59;;;;;;;;;;;;;;;13.54;100.00;96728.75;5126924;28;19959;-77
2023/09/02 04:11:25;;;;;;;;;;;;;;;13.53;100.00;96726.34;5127793;28;19976;-77
2023/09/02 04:13:51;;;;;;;;;;;;;;;13.51;100.00;96739.75;5127760;28;19948;-78
2023/09/02 04:16:16;;;;;;;;;;;;;;;13.49;100.00;96723.34;5126874;28;19935;-71
2023/09/02 04:18:42;;;;;;;;;;;;;;;13.47;100.00;96728.06;5127392;28;19938;-71
2023/09/02 04:21:09;;;;;;;;;;;;;;;13.45;100.00;96732.75;5126809;28;19936;-71
2023/09/02 04:23:35;;;;;;;;;;;;;;;13.44;100.00;96731.16;5127252;28;19970;-71
2023/09/02 04:26:02;;;;;;;;;;;;;;;13.43;100.00;96728.75;5125583;28;20225;-71
2023/09/02 04:28:27;;;;;;;;;;;;;;;13.40;100.00;96733.44;5126988;28;19933;-71
2023/09/02 04:30:54;;;;;;;;;;;;;;;13.40;100.00;96737.91;5126638;28;19933;-72
2023/09/02 04:33:21;;;;;;;;;;;;;;;13.39;100.00;96733.66;5126600;28;19960;-71
2023/09/02 04:35:47;;;;;;;;;;;;;;;13.38;100.00;96734.72;5127080;28;20136;-73
2023/09/02 04:38:14;;;;;;;;;;;;;;;13.38;100.00;96735.50;5126964;28;19962;-73
2023/09/02 04:40:40;;;;;;;;;;;;;;;13.39;100.00;96737.09;5126248;28;20167;-73
2023/09/02 04:43:08;;;;;;;;;;;;;;;13.39;100.00;96745.00;5126855;28;19945;-73
2023/09/02 04:45:35;;;;;;;;;;;;;;;13.41;100.00;96750.03;5126820;28;19939;-73
2023/09/02 04:48:01;;;;;;;;;;;;;;;13.39;100.00;96747.63;5125096;28;19947;-73
2023/09/02 04:50:27;;;;;;;;;;;;;;;13.38;100.00;96739.97;5126668;28;19955;-73
2023/09/02 04:52:53;;;;;;;;;;;;;;;13.38;100.00;96747.88;5127025;28;19943;-77
2023/09/02 04:55:22;;;;;;;;;;;;;;;13.37;100.00;96754.16;5126147;28;19947;-78
2023/09/02 04:57:48;;;;;;;;;;;;;;;13.37;100.00;96754.16;5126054;28;19943;-78
2023/09/02 05:00:14;;;;;;;;;;;;;;;13.34;100.00;96758.06;5126808;28;19944;-78
2023/09/02 05:02:42;;;;;;;;;;;;;;;13.34;100.00;96758.06;5125959;28;19940;-78
2023/09/02 05:05:08;;;;;;;;;;;;;;;13.34;100.00;96757.25;5126118;28;20220;-78
2023/09/02 05:07:34;;;;;;;;;;;;;;;13.35;100.00;96762.28;5125830;28;20026;-78
2023/09/02 05:10:00;;;;;;;;;;;;;;;13.38;100.00;96758.41;5126004;28;19965;-71
2023/09/02 05:12:25;;;;;;;;;;;;;;;13.39;100.00;96765.28;5126634;28;19998;-71
2023/09/02 05:14:51;;;;;;;;;;;;;;;13.40;100.00;96759.78;5125760;28;19940;-71
2023/09/02 05:17:17;;;;;;;;;;;;;;;13.43;100.00;96761.16;5125664;28;20226;-72
2023/09/02 05:19:43;;;;;;;;;;;;;;;13.45;100.00;96759.09;5126228;28;19937;-72
2023/09/02 05:22:09;;;;;;;;;;;;;;;13.47;100.00;96759.66;5107501;28;19940;-72
2023/09/02 05:24:35;;;;;;;;;;;;;;;13.51;100.00;96763.47;5126313;28;19969;-71
2023/09/02 05:27:01;;;;;;;;;;;;;;;13.55;100.00;96759.34;5125451;28;19954;-77
2023/09/02 05:29:27;;;;;;;;;;;;;;;13.58;100.00;96761.50;5125465;28;19952;-82
2023/09/02 05:31:53;;;;;;;;;;;;;;;13.60;100.00;96764.72;5124328;28;20164;-81
2023/09/02 05:34:19;;;;;;;;;;;;;;;13.67;100.00;96763.78;5124815;28;19940;-82
2023/09/02 05:36:45;;;;;;;;;;;;;;;13.72;100.00;96772.63;5124865;28;20163;-82
2023/09/02 05:39:10;;;;;;;;;;;;;;;13.76;100.00;96767.72;5125241;28;19941;-82
2023/09/02 05:41:37;;;;;;;;;;;;;;;13.80;100.00;96771.50;5125199;28;20185;-81
2023/09/02 05:44:02;;;;;;;;;;;;;;;13.81;100.00;96773.06;5123957;28;19948;-71
2023/09/02 05:46:28;;;;;;;;;;;;;;;13.87;100.00;96780.06;5124090;28;20244;-73
2023/09/02 05:48:54;;;;;;;;;;;;;;;13.91;100.00;96785.69;5125103;28;19938;-79
2023/09/02 05:51:20;;;;;;;;;;;;;;;13.96;100.00;96781.34;5124983;28;19944;-78
2023/09/02 05:53:46;;;;;;;;;;;;;;;13.99;100.00;96783.50;5124641;28;19944;-79
2023/09/02 05:56:12;;;;;;;;;;;;;;;14.03;100.00;96783.84;5125027;28;19943;-79
2023/09/02 05:58:38;;;;;;;;;;;;;;;14.10;100.00;96786.38;5124954;28;19934;-79
2023/09/02 06:01:04;;;;;;;;;;;;;;;14.20;100.00;96784.72;5125511;28;19990;-79
2023/09/02 06:03:30;;;;;;;;;;;;;;;14.36;100.00;96787.66;5124936;28;19934;-77
2023/09/02 06:05:56;;;;;;;;;;;;;;;14.50;100.00;96790.88;5123785;28;19989;-78
2023/09/02 06:08:22;;;;;;;;;;;;;;;14.54;100.00;96789.38;5124766;28;19956;-77
2023/09/02 06:11:14;;;;;;;;;;;;;;;14.52;100.00;96788.78;5125335;28;19951;-77
2023/09/02 06:13:40;;;;;;;;;;;;;;;14.53;100.00;96795.66;5121446;28;19942;-78
2023/09/02 06:16:06;;;;;;;;;;;;;;;14.48;100.00;96796.38;5124731;28;20005;-78
2023/09/02 06:18:33;;;;;;;;;;;;;;;14.40;100.00;96799.38;5125298;28;19941;-78
2023/09/02 06:21:06;;;;;;;;;;;;;;;14.44;100.00;96803.16;5125189;28;20114;-73
2023/09/02 06:23:32;;;;;;;;;;;;;;;14.47;100.00;96794.78;5124331;28;19937;-71
2023/09/02 06:25:59;;;;;;;;;;;;;;;14.54;100.00;96792.78;5125200;28;19946;-72
2023/09/02 06:28:25;;;;;;;;;;;;;;;14.72;100.00;96796.31;5124879;28;19945;-71
2023/09/02 06:30:51;;;;;;;;;;;;;;;15.01;100.00;96802.41;5124549;28;20268;-70
2023/09/02 06:33:21;;;;;;;;;;;;;;;15.40;100.00;96798.03;5125355;28;19935;-71
2023/09/02 06:35:50;;;;;;;;;;;;;;;15.85;100.00;96800.88;5124966;28;19933;-71
2023/09/02 06:38:16;;;;;;;;;;;;;;;16.17;100.00;96804.50;5125347;28;19991;-71
2023/09/02 06:40:42;;;;;;;;;;;;;;;16.46;100.00;96795.56;5124850;28;20162;-71
2023/09/02 06:43:08;;;;;;;;;;;;;;;16.77;100.00;96791.44;5123332;28;19990;-73
2023/09/02 06:45:34;;;;;;;;;;;;;;;17.06;100.00;96791.22;5124448;28;19970;-73
2023/09/02 06:48:00;;;;;;;;;;;;;;;17.33;100.00;96793.88;5124951;28;20207;-73
2023/09/02 06:50:27;;;;;;;;;;;;;;;17.55;100.00;96786.59;5124384;28;19955;-73
2023/09/02 06:52:52;;;;;;;;;;;;;;;17.74;100.00;96789.66;5124396;28;19937;-73
2023/09/02 06:55:18;;;;;;;;;;;;;;;17.87;100.00;96777.84;5123276;28;19950;-72
2023/09/02 06:57:44;;;;;;;;;;;;;;;18.00;100.00;96790.66;5124925;28;19942;-78
2023/09/02 07:00:11;;;;;;;;;;;;;;;18.16;100.00;96785.41;5124348;28;19933;-72
2023/09/02 07:02:37;;;;;;;;;;;;;;;18.28;100.00;96801.16;5124368;28;20219;-72
2023/09/02 07:05:03;;;;;;;;;;;;;;;18.34;100.00;96794.81;5124290;28;19986;-72
2023/09/02 07:07:29;;;;;;;;;;;;;;;18.42;100.00;96786.34;5124863;28;19947;-72
2023/09/02 07:09:55;;;;;;;;;;;;;;;18.46;100.00;96785.56;5125018;28;20101;-72
2023/09/02 07:12:21;;;;;;;;;;;;;;;18.52;100.00;96804.16;5124267;28;19934;-72
2023/09/02 07:14:47;;;;;;;;;;;;;;;18.62;100.00;96797.03;5123640;28;19938;-72
2023/09/02 07:17:12;;;;;;;;;;;;;;;18.73;100.00;96797.06;5124243;28;19938;-72
2023/09/02 07:19:38;;;;;;;;;;;;;;;18.80;100.00;96805.63;5124126;28;19944;-73
2023/09/02 07:22:04;;;;;;;;;;;;;;;18.89;100.00;96822.66;5124151;28;20008;-73
2023/09/02 07:24:30;;;;;;;;;;;;;;;18.95;100.00;96805.66;5124129;28;20172;-73
2023/09/02 07:26:56;;;;;;;;;;;;;;;19.01;100.00;96807.28;5124676;28;19947;-73
2023/09/02 07:29:22;;;;;;;;;;;;;;;19.17;100.00;96801.97;5124786;28;19952;-74
2023/09/02 07:31:47;;;;;;;;;;;;;;;19.34;100.00;96809.69;5124070;28;20008;-73
2023/09/02 07:34:14;;;;;;;;;;;;;;;19.41;100.00;96797.75;5123465;28;20225;-73
2023/09/02 07:36:41;;;;;;;;;;;;;;;19.40;100.00;96804.16;5127464;28;19932;-82
2023/09/02 07:39:07;;;;;;;;;;;;;;;19.42;100.00;96806.53;5127225;28;20205;-73
2023/09/02 07:41:32;;;;;;;;;;;;;;;19.44;100.00;96810.53;5127459;28;19960;-73
2023/09/02 07:43:58;;;;;;;;;;;;;;;19.44;100.00;96802.56;5127494;28;20217;-73
2023/09/02 07:46:24;;;;;;;;;;;;;;;19.43;100.00;96802.81;5127998;28;19939;-73
2023/09/02 07:48:51;;;;;;;;;;;;;;;19.35;100.00;96801.47;5126679;28;20259;-73
2023/09/02 07:51:17;;;;;;;;;;;;;;;19.36;100.00;96811.06;5128142;28;19962;-73
2023/09/02 07:53:44;;;;;;;;;;;;;;;19.53;100.00;96816.13;5127359;28;19947;-72
2023/09/02 07:56:10;;;;;;;;;;;;;;;19.64;100.00;96804.41;5127314;28;19937;-72
2023/09/02 07:58:35;;;;;;;;;;;;;;;19.71;100.00;96808.69;5126220;28;20337;-73
2023/09/02 08:01:02;;;;;;;;;;;;;;;19.77;100.00;96804.94;5127130;28;19934;-73
2023/09/02 08:03:28;;;;;;;;;;;;;;;19.80;100.00;96807.06;5127680;28;19943;-73
2023/09/02 08:05:54;;;;;;;;;;;;;;;19.79;100.00;96803.63;5127691;28;19937;-73
2023/09/02 08:08:20;;;;;;;;;;;;;;;19.77;100.00;96818.25;5127014;28;19988;-73
2023/09/02 08:10:46;;;;;;;;;;;;;;;19.75;100.00;96813.19;5127486;28;20115;-73
2023/09/02 08:13:12;;;;;;;;;;;;;;;19.78;100.00;96815.34;5126984;28;19973;-72
2023/09/02 08:15:38;;;;;;;;;;;;;;;19.82;100.00;96812.91;5127719;28;19935;-81
2023/09/02 08:18:04;;;;;;;;;;;;;;;19.82;100.00;96820.91;5125799;28;19947;-82
2023/09/02 08:20:30;;;;;;;;;;;;;;;19.87;100.00;96828.91;5127138;28;19940;-82
2023/09/02 08:22:56;;;;;;;;;;;;;;;19.96;100.00;96832.59;5127087;28;19937;-81
2023/09/02 08:25:22;;;;;;;;;;;;;;;20.06;100.00;96808.63;5108588;28;19941;-83
2023/09/02 08:27:48;;;;;;;;;;;;;;;20.13;100.00;96812.88;5126340;28;19947;-82
2023/09/02 08:30:14;;;;;;;;;;;;;;;20.21;100.00;96817.66;5126261;28;19952;-81
2023/09/02 08:32:41;;;;;;;;;;;;;;;20.33;100.00;96820.81;5126627;28;19938;-81
2023/09/02 08:35:08;;;;;;;;;;;;;;;20.45;100.00;96817.84;5126534;28;20125;-80
2023/09/02 08:37:34;;;;;;;;;;;;;;;20.55;100.00;96814.34;5125801;28;19934;-80
2023/09/02 08:40:01;;;;;;;;;;;;;;;20.63;100.00;96813.81;5126966;28;19965;-80
2023/09/02 08:42:27;;;;;;;;;;;;;;;20.70;100.00;96800.19;5126693;28;20117;-80
2023/09/02 08:44:55;;;;;;;;;;;;;;;20.73;100.00;96803.09;5126376;28;19946;-80
2023/09/02 08:47:21;;;;;;;;;;;;;;;20.88;100.00;96804.91;5126803;28;19937;-80
2023/09/02 08:49:48;;;;;;;;;;;;;;;21.07;100.00;96810.38;5125833;28;19954;-80
2023/09/02 08:52:14;;;;;;;;;;;;;;;21.14;100.00;96794.06;5127043;28;20132;-73
2023/09/02 08:54:41;;;;;;;;;;;;;;;21.24;100.00;96804.66;5126203;28;20257;-73
2023/09/02 08:57:07;;;;;;;;;;;;;;;21.30;100.00;96798.22;5126077;28;19935;-72
2023/09/02 08:59:33;;;;;;;;;;;;;;;21.39;100.00;96801.88;5126338;28;19935;-72
2023/09/02 09:01:59;;;;;;;;;;;;;;;21.45;100.00;96808.81;5126024;28;19938;-72
2023/09/02 09:04:29;;;;;;;;;;;;;;;21.48;100.00;96815.44;5125955;28;19936;-73
2023/09/02 09:06:55;;;;;;;;;;;;;;;21.49;100.00;96809.06;5124692;28;19937;-79
2023/09/02 09:09:22;;;;;;;;;;;;;;;21.52;100.00;96818.38;5125797;28;20233;-77
2023/09/02 09:11:50;;;;;;;;;;;;;;;21.51;100.00;96809.56;5125802;28;19938;-80
2023/09/02 09:14:23;;;;;;;;;;;;;;;21.49;100.00;96820.53;5124597;28;19936;-80
2023/09/02 09:16:51;;;;;;;;;;;;;;;21.52;100.00;96829.84;5125372;28;19950;-80
2023/09/02 09:19:17;;;;;;;;;;;;;;;21.52;100.00;96815.69;5125645;28;20223;-80
2023/09/02 09:21:44;;;;;;;;;;;;;;;21.52;100.00;96819.16;5124479;28;20257;-81
2023/09/02 09:24:13;;;;;;;;;;;;;;;21.53;100.00;96815.44;5125570;28;19943;-81
2023/09/02 09:26:41;;;;;;;;;;;;;;;21.57;100.00;96823.69;5125184;28;19948;-73
2023/09/02 09:29:10;;;;;;;;;;;;;;;21.61;100.00;96827.38;5124957;28;19936;-72
2023/09/02 09:31:36;;;;;;;;;;;;;;;21.70;100.00;96815.03;5125859;28;19980;-72
2023/09/02 09:34:03;;;;;;;;;;;;;;;21.79;100.00;96816.00;5124873;28;19949;-72
2023/09/02 09:36:30;;;;;;;;;;;;;;;21.87;100.00;96817.28;5125419;28;19938;-72
2023/09/02 09:38:57;;;;;;;;;;;;;;;21.92;100.00;96814.53;5124774;28;19959;-71
2023/09/02 09:41:23;;;;;;;;;;;;;;;21.93;100.00;96808.13;5125681;28;19962;-73
2023/09/02 09:44:11;;;;;;;;;;;;;;;21.91;98.57;96791.59;5125290;28;19945;-76
2023/09/02 09:46:43;;;;;;;;;;;;;;;21.89;100.00;96812.44;5125766;28;19939;-77
2023/09/02 09:49:28;;;;;;;;;;;;;;;21.93;100.00;96805.47;5125173;28;20151;-77
2023/09/02 09:52:00;;;;;;;;;;;;;;;22.02;100.00;96809.09;5125344;28;19954;-76
2023/09/02 09:54:39;;;;;;;;;;;;;;;22.08;100.00;96823.22;5125383;28;19938;-77
2023/09/02 09:57:06;;;;;;;;;;;;;;;22.15;100.00;96817.53;5125601;28;19941;-77
2023/09/02 09:59:35;;;;;;;;;;;;;;;22.17;98.05;96794.78;5125188;28;19990;-76
2023/09/02 10:02:06;;;;;;;;;;;;;;;22.18;98.88;96801.75;5124991;28;20117;-72
2023/09/02 10:04:32;;;;;;;;;;;;;;;22.27;96.20;96792.03;5125254;28;19952;-73
2023/09/02 10:07:02;;;;;;;;;;;;;;;22.31;98.94;96800.28;5125359;28;20105;-82
2023/09/02 10:09:41;;;;;;;;;;;;;;;22.39;98.63;96797.00;5123815;28;19935;-81
2023/09/02 10:12:11;;;;;;;;;;;;;;;22.53;100.00;96812.31;5106640;28;19937;-82
2023/09/02 10:14:40;;;;;;;;;;;;;;;22.66;97.91;96799.06;5124249;28;19943;-81
2023/09/02 10:17:06;;;;;;;;;;;;;;;22.81;99.32;96795.41;5106665;28;20234;-82
2023/09/02 10:19:34;;;;;;;;;;;;;;;22.98;95.66;96778.06;5124706;28;19944;-81
2023/09/02 10:22:01;;;;;;;;;;;;;;;23.10;95.11;96783.81;5125345;28;19937;-77
2023/09/02 10:24:28;;;;;;;;;;;;;;;23.23;93.52;96758.19;5125015;28;19936;-73
2023/09/02 10:26:56;;;;;;;;;;;;;;;23.36;94.18;96776.16;5124738;28;20114;-73
2023/09/02 10:29:27;;;;;;;;;;;;;;;23.49;89.77;96745.19;5125471;28;19977;-73
2023/09/02 10:31:58;;;;;;;;;;;;;;;23.65;92.19;96767.94;5124909;28;19960;-73
2023/09/02 10:34:27;;;;;;;;;;;;;;;23.78;89.75;96744.97;5125445;28;19947;-73
2023/09/02 10:36:56;;;;;;;;;;;;;;;23.88;84.84;96717.22;5125124;28;19941;-72
2023/09/02 10:39:25;;;;;;;;;;;;;;;23.98;85.80;96724.25;5124835;28;20127;-73
2023/09/02 10:41:54;;;;;;;;;;;;;;;24.13;88.73;96744.59;5123165;28;20031;-79
2023/09/02 10:44:21;;;;;;;;;;;;;;;24.17;84.00;96708.88;5123918;28;20232;-80
2023/09/02 10:46:47;;;;;;;;;;;;;;;24.28;86.40;96730.91;5124474;28;19942;-80
2023/09/02 10:49:13;;;;;;;;;;;;;;;24.45;84.98;96724.94;5123268;28;20142;-80
2023/09/02 10:51:40;;;;;;;;;;;;;;;24.60;83.59;96713.88;5123311;28;19965;-80
2023/09/02 10:54:06;;;;;;;;;;;;;;;24.76;81.46;96706.31;5123873;28;19946;-80
2023/09/02 10:56:33;;;;;;;;;;;;;;;24.95;83.06;96718.75;5123526;28;19949;-80
2023/09/02 10:59:03;;;;;;;;;;;;;;;25.15;78.38;96691.44;5124445;28;19955;-73
2023/09/02 11:01:42;;;;;;;;;;;;;;;25.25;66.82;96736.84;5124375;28;20216;-76
2023/09/02 11:04:08;;;;;;;;;;;;;;;25.35;77.07;96777.97;5124902;28;19941;-76
2023/09/02 11:06:34;;;;;;;;;;;;;;;25.43;75.10;96769.16;5125121;28;19986;-76
2023/09/02 11:09:00;;;;;;;;;;;;;;;25.52;70.18;96770.03;5125169;28;20138;-76
2023/09/02 11:11:45;;;;;;;;;;;;;;;25.59;75.68;96780.34;5128932;28;20229;-76
2023/09/02 11:14:11;;;;;;;;;;;;;;;25.77;77.72;96792.00;5128068;28;20002;-76
2023/09/02 11:16:42;;;;;;;;;;;;;;;25.95;77.40;96782.13;5106562;28;19954;-73
2023/09/02 11:19:08;;;;;;;;;;;;;;;26.12;73.75;96769.59;5106741;28;19964;-74
2023/09/02 11:21:46;;;;;;;;;;;;;;;26.26;70.52;96758.69;5106051;28;19944;-74
2023/09/02 11:24:18;;;;;;;;;;;;;;;26.40;69.12;96757.81;5105832;28;19935;-74
2023/09/02 11:26:49;;;;;;;;;;;;;;;26.48;67.99;96757.81;5106323;28;19941;-74
2023/09/02 11:29:21;;;;;;;;;;;;;;;26.54;71.47;96769.22;5105829;28;19939;-74
2023/09/02 11:31:57;;;;;;;;;;;;;;;26.60;69.51;96767.19;5106445;28;19954;-74
2023/09/02 11:34:23;;;;;;;;;;;;;;;26.68;65.98;96759.13;5105637;28;19972;-73
2023/09/02 11:36:51;;;;;;;;;;;;;;;26.77;71.29;96774.50;5105719;28;20126;-79
2023/09/02 11:39:17;;;;;;;;;;;;;;;26.86;72.16;96773.41;5089450;28;19938;-73
2023/09/02 11:41:43;;;;;;;;;;;;;;;26.90;64.89;96769.00;5105456;28;20324;-73
2023/09/02 11:44:09;;;;;;;;;;;;;;;26.86;67.36;96786.88;5105455;28;19940;-72
2023/09/02 11:46:39;;;;;;;;;;;;;;;26.93;68.95;96789.88;5106825;28;19948;-71
2023/09/02 11:49:23;;;;;;;;;;;;;;;27.02;70.16;96791.78;5127952;28;19943;-71
2023/09/02 11:51:49;;;;;;;;;;;;;;;27.13;69.37;96798.44;5127354;28;19963;-71
2023/09/02 11:54:16;;;;;;;;;;;;;;;27.16;68.13;96792.44;5127974;28;19940;-77
2023/09/02 11:56:41;;;;;;;;;;;;;;;27.25;69.79;96805.91;5127366;28;19936;-73
2023/09/02 11:59:20;;;;;;;;;;;;;;;27.43;68.89;96796.72;5128125;28;19938;-74
2023/09/02 12:01:46;;;;;;;;;;;;;;;27.61;66.40;96794.78;5128128;28;19939;-73
2023/09/02 12:04:12;;;;;;;;;;;;;;;27.61;65.98;96796.69;5128023;28;20170;-73
2023/09/02 12:06:38;;;;;;;;;;;;;;;27.66;67.39;96802.72;5127210;28;19952;-73
2023/09/02 12:09:05;;;;;;;;;;;;;;;27.79;65.47;96800.94;5127048;28;19965;-73
2023/09/02 12:11:32;;;;;;;;;;;;;;;27.87;64.05;96797.47;5127577;28;19974;-78
2023/09/02 12:13:58;;;;;;;;;;;;;;;27.91;64.79;96806.50;5125938;28;19946;-79
2023/09/02 12:16:25;;;;;;;;;;;;;;;27.91;61.92;96798.41;5127755;28;19937;-79
2023/09/02 12:18:51;;;;;;;;;;;;;;;27.89;61.45;96805.25;5126921;28;19935;-79
2023/09/02 12:21:17;;;;;;;;;;;;;;;27.96;64.13;96804.75;5125646;28;19947;-80
2023/09/02 12:23:43;;;;;;;;;;;;;;;28.05;64.68;96800.09;5127368;28;19947;-79
2023/09/02 12:26:09;;;;;;;;;;;;;;;28.09;64.12;96801.03;5126740;28;19949;-79
2023/09/02 12:28:35;;;;;;;;;;;;;;;28.12;63.64;96803.88;5127547;28;19937;-80
2023/09/02 12:31:02;;;;;;;;;;;;;;;28.24;65.58;96800.50;5126676;28;19957;-73
2023/09/02 12:33:28;;;;;;;;;;;;;;;28.11;58.17;96796.91;5125566;28;19952;-79
2023/09/02 12:35:54;;;;;;;;;;;;;;;28.01;61.95;96809.94;5126193;28;20241;-79
2023/09/02 12:38:20;;;;;;;;;;;;;;;27.96;62.43;96810.91;5126508;28;19936;-80